Time;durP1;ratioP1;P1;durP2;ratioP2;P2;SDS_P1;SDS_P2;PMS_P1;PMS_P2;Temp;Humidity;BMP_temperature;BMP_pressure;BME280_temperature;BME280_humidity;BME280_pressure;Samples;Min_cycle;Max_cycle;Signal;HPM_P1;HPM_P2
2021/07/28 00:00:30;;;;;;;;;;;;;;;23.92;68.93;99905.75;1698869;82;20172;-78
2021/07/28 00:02:56;;;;;;;;;;;;;;;23.91;68.97;99902.79;1713975;82;20142;-83
2021/07/28 00:05:22;;;;;;;;;;;;;;;23.87;68.09;99893.56;1704212;82;20122;-79
2021/07/28 00:07:48;;;;;;;;;;;;;;;23.84;68.30;99890.02;1709398;82;22032;-78
2021/07/28 00:10:13;;;;;;;;;;;;;;;23.73;68.23;99888.23;1710372;82;20405;-78
2021/07/28 00:12:39;;;;;;;;;;;;;;;23.77;68.43;99885.30;1710158;82;20159;-79
2021/07/28 00:15:07;;;;;;;;;;;;;;;23.77;68.31;99878.55;1707986;82;20578;-79
2021/07/28 00:17:32;;;;;;;;;;;;;;;23.78;67.71;99876.16;1712971;83;20454;-79
2021/07/28 00:25:27;;;;;;;;;;;;;;;23.74;68.15;99876.36;1600457;86;20522;-77
2021/07/28 00:27:53;;;;;;;;;;;;;;;23.72;68.06;99873.11;1649751;82;20286;-77
2021/07/28 00:30:18;;;;;;;;;;;;;;;23.57;68.09;99877.24;1706967;83;20522;-76
2021/07/28 00:32:44;;;;;;;;;;;;;;;23.60;68.12;99876.74;1715798;82;21079;-80
2021/07/28 00:35:10;;;;;;;;;;;;;;;23.64;68.17;99877.86;1706675;82;20142;-79
2021/07/28 00:37:36;;;;;;;;;;;;;;;23.67;68.19;99879.25;1697983;82;20155;-79
2021/07/28 00:40:03;;;;;;;;;;;;;;;23.63;68.66;99881.64;1708303;82;21126;-77
2021/07/28 00:42:29;;;;;;;;;;;;;;;23.66;68.72;99880.30;1709042;82;20122;-78
2021/07/28 00:44:54;;;;;;;;;;;;;;;23.64;69.10;99877.86;1713194;82;21079;-79
2021/07/28 00:47:22;;;;;;;;;;;;;;;23.58;69.56;99874.81;1714144;82;20248;-81
2021/07/28 00:49:47;;;;;;;;;;;;;;;23.56;69.97;99876.14;1706849;82;20324;-78
2021/07/28 00:52:13;;;;;;;;;;;;;;;23.52;70.26;99869.06;1714665;82;20162;-80
2021/07/28 00:54:39;;;;;;;;;;;;;;;23.49;70.73;99873.61;1710703;82;20138;-77
2021/07/28 00:57:07;;;;;;;;;;;;;;;23.40;71.46;99871.05;1699265;82;21911;-77
2021/07/28 00:59:32;;;;;;;;;;;;;;;23.36;71.70;99871.28;1711290;82;20136;-80
2021/07/28 01:01:58;;;;;;;;;;;;;;;23.26;72.33;99868.72;1719374;82;20145;-80
2021/07/28 01:04:24;;;;;;;;;;;;;;;23.18;73.04;99871.84;1701786;82;20224;-78
2021/07/28 01:06:49;;;;;;;;;;;;;;;23.15;73.44;99875.03;1704294;82;20175;-77
2021/07/28 01:09:15;;;;;;;;;;;;;;;23.09;73.86;99877.36;1702565;82;21300;-79
2021/07/28 01:11:40;;;;;;;;;;;;;;;23.02;74.03;99868.05;1705506;82;20172;-81
2021/07/28 01:14:06;;;;;;;;;;;;;;;22.99;74.41;99879.30;1710438;83;20293;-79
2021/07/28 01:16:38;;;;;;;;;;;;;;;23.01;73.89;99879.06;1707337;82;20196;-79
2021/07/28 01:19:10;;;;;;;;;;;;;;;23.01;73.35;99884.45;1707268;82;20176;-78
2021/07/28 01:21:35;;;;;;;;;;;;;;;23.02;73.17;99877.47;1708425;82;21100;-78
2021/07/28 01:24:01;;;;;;;;;;;;;;;22.91;73.52;99880.53;1696969;82;20285;-79
2021/07/28 01:26:26;;;;;;;;;;;;;;;22.91;73.65;99884.56;1704126;82;20154;-80
2021/07/28 01:28:52;;;;;;;;;;;;;;;22.84;73.90;99881.24;1714456;82;20295;-78
2021/07/28 01:31:18;;;;;;;;;;;;;;;22.73;73.67;99878.07;1700660;82;20449;-83
2021/07/28 01:33:45;;;;;;;;;;;;;;;22.69;74.29;99887.17;1709965;82;21286;-78
2021/07/28 01:36:14;;;;;;;;;;;;;;;22.64;74.56;99888.95;1711772;82;20214;-78
2021/07/28 01:38:39;;;;;;;;;;;;;;;22.66;74.39;99897.08;1705628;83;20147;-78
2021/07/28 01:41:06;;;;;;;;;;;;;;;22.68;74.28;99903.56;1703526;82;20673;-77
2021/07/28 01:43:31;;;;;;;;;;;;;;;22.61;74.11;99898.84;1689470;83;20448;-78
2021/07/28 01:45:59;;;;;;;;;;;;;;;22.56;74.29;99894.22;1714690;82;21094;-78
2021/07/28 01:48:25;;;;;;;;;;;;;;;22.59;74.23;99893.20;1726131;82;20192;-76
2021/07/28 01:50:50;;;;;;;;;;;;;;;22.46;74.32;99889.45;1715050;82;20224;-77
2021/07/28 01:53:16;;;;;;;;;;;;;;;22.51;74.50;99885.53;1713803;82;20115;-80
2021/07/28 01:55:42;;;;;;;;;;;;;;;22.51;74.07;99891.42;1703419;82;20134;-77
2021/07/28 01:58:07;;;;;;;;;;;;;;;22.46;74.55;99886.76;1708784;82;20898;-77
2021/07/28 02:00:33;;;;;;;;;;;;;;;22.38;75.07;99893.34;1703955;82;20886;-78
2021/07/28 02:03:04;;;;;;;;;;;;;;;22.28;74.51;99890.95;1712065;82;20357;-77
2021/07/28 02:05:36;;;;;;;;;;;;;;;22.26;74.96;99889.84;1705594;82;20307;-80
2021/07/28 02:08:07;;;;;;;;;;;;;;;22.18;75.49;99893.73;1701524;82;20187;-78
2021/07/28 02:10:37;;;;;;;;;;;;;;;22.21;75.09;99889.77;1715520;82;21302;-80
2021/07/28 02:13:03;;;;;;;;;;;;;;;22.22;75.00;99892.21;1693922;83;20152;-81
2021/07/28 02:15:29;;;;;;;;;;;;;;;22.16;75.27;99891.83;1710907;83;20240;-81
2021/07/28 02:17:55;;;;;;;;;;;;;;;22.04;75.79;99889.70;1714032;82;20272;-79
2021/07/28 02:20:21;;;;;;;;;;;;;;;21.98;76.10;99880.70;1717786;82;20200;-81
2021/07/28 02:22:46;;;;;;;;;;;;;;;21.98;76.38;99877.20;1715909;82;21080;-79
2021/07/28 02:25:13;;;;;;;;;;;;;;;22.06;76.27;99878.16;1703338;82;21321;-77
2021/07/28 02:27:38;;;;;;;;;;;;;;;22.17;75.65;99878.67;1700774;82;20174;-77
2021/07/28 02:30:05;;;;;;;;;;;;;;;22.21;75.38;99879.81;1703453;82;20684;-81
2021/07/28 02:32:31;;;;;;;;;;;;;;;22.23;75.30;99872.84;1704179;82;20196;-77
2021/07/28 02:34:57;;;;;;;;;;;;;;;22.27;75.05;99876.70;1717376;82;21120;-77
2021/07/28 02:37:22;;;;;;;;;;;;;;;22.30;74.85;99874.07;1717008;82;20485;-78
2021/07/28 02:39:48;;;;;;;;;;;;;;;22.24;75.20;99867.23;1711411;82;20178;-78
2021/07/28 02:42:14;;;;;;;;;;;;;;;22.21;75.22;99871.73;1713179;82;20146;-81
2021/07/28 02:44:39;;;;;;;;;;;;;;;22.09;75.14;99869.63;1707030;82;20186;-77
2021/07/28 02:47:05;;;;;;;;;;;;;;;22.11;75.17;99868.88;1701336;82;21075;-81
2021/07/28 02:49:30;;;;;;;;;;;;;;;22.10;75.03;99872.61;1703650;82;20154;-78
2021/07/28 02:51:56;;;;;;;;;;;;;;;22.14;75.12;99868.91;1710603;82;20154;-81
2021/07/28 02:54:23;;;;;;;;;;;;;;;22.04;75.54;99868.99;1712721;82;20186;-77
2021/07/28 02:56:49;;;;;;;;;;;;;;;22.07;75.70;99877.66;1706380;82;20149;-78
2021/07/28 02:59:15;;;;;;;;;;;;;;;22.09;75.66;99875.53;1696040;82;21116;-79
2021/07/28 03:01:41;;;;;;;;;;;;;;;21.91;76.06;99873.83;1702431;82;20583;-77
2021/07/28 03:04:06;;;;;;;;;;;;;;;21.74;76.90;99877.27;1702968;82;20214;-79
2021/07/28 03:06:32;;;;;;;;;;;;;;;21.68;76.90;99876.33;1710437;82;20464;-77
2021/07/28 03:08:58;;;;;;;;;;;;;;;21.63;77.64;99872.20;1707073;82;20216;-77
2021/07/28 03:11:23;;;;;;;;;;;;;;;21.58;78.22;99877.98;1707781;82;21010;-77
2021/07/28 03:13:49;;;;;;;;;;;;;;;21.53;78.68;99877.34;1715717;82;20248;-77
2021/07/28 03:16:14;;;;;;;;;;;;;;;21.55;78.97;99879.29;1707576;82;20158;-77
2021/07/28 03:18:40;;;;;;;;;;;;;;;21.53;79.32;99878.69;1708197;82;20135;-80
2021/07/28 03:21:05;;;;;;;;;;;;;;;21.47;80.04;99882.28;1697837;82;20153;-79
2021/07/28 03:23:31;;;;;;;;;;;;;;;21.43;80.16;99887.31;1712977;82;21188;-78
2021/07/28 03:25:56;;;;;;;;;;;;;;;21.49;79.99;99890.97;1707117;82;20142;-79
2021/07/28 03:28:22;;;;;;;;;;;;;;;21.41;80.19;99888.08;1704384;82;20122;-80
2021/07/28 03:30:49;;;;;;;;;;;;;;;21.41;80.16;99885.40;1700995;82;20727;-77
2021/07/28 03:33:16;;;;;;;;;;;;;;;21.49;79.99;99883.72;1717515;82;20904;-78
2021/07/28 03:35:41;;;;;;;;;;;;;;;21.60;79.25;99886.64;1704206;82;21281;-77
2021/07/28 03:38:07;;;;;;;;;;;;;;;21.63;79.07;99886.17;1711335;82;20208;-77
2021/07/28 03:40:32;;;;;;;;;;;;;;;21.73;78.81;99882.34;1701059;82;20144;-78
2021/07/28 03:42:58;;;;;;;;;;;;;;;21.80;77.51;99884.39;1705404;82;20445;-80
2021/07/28 03:45:23;;;;;;;;;;;;;;;21.91;77.15;99892.64;1704209;82;20499;-77
2021/07/28 03:47:49;;;;;;;;;;;;;;;22.00;76.32;99883.98;1709254;82;21072;-79
2021/07/28 03:50:15;;;;;;;;;;;;;;;22.07;75.40;99888.41;1714250;82;20285;-77
2021/07/28 03:52:40;;;;;;;;;;;;;;;22.14;75.23;99887.22;1710050;82;20142;-77
2021/07/28 03:55:07;;;;;;;;;;;;;;;22.13;74.80;99886.92;1709038;82;20126;-82
2021/07/28 03:57:32;;;;;;;;;;;;;;;22.14;75.07;99881.84;1715869;82;20126;-77
2021/07/28 03:59:58;;;;;;;;;;;;;;;22.25;74.19;99885.55;1705028;82;21110;-80
2021/07/28 04:02:24;;;;;;;;;;;;;;;22.31;74.15;99882.44;1711340;83;20209;-78
2021/07/28 04:04:49;;;;;;;;;;;;;;;22.37;73.61;99890.89;1707422;82;20190;-77
2021/07/28 04:07:15;;;;;;;;;;;;;;;22.42;73.14;99888.31;1710553;82;20738;-79
2021/07/28 04:09:40;;;;;;;;;;;;;;;22.40;73.23;99887.72;1698303;82;20158;-77
2021/07/28 04:12:06;;;;;;;;;;;;;;;22.37;72.53;99886.34;1713679;82;21163;-79
2021/07/28 04:14:32;;;;;;;;;;;;;;;22.32;73.26;99888.92;1713368;82;20305;-79
2021/07/28 04:16:57;;;;;;;;;;;;;;;22.31;73.45;99889.16;1709841;82;20910;-78
2021/07/28 04:19:23;;;;;;;;;;;;;;;22.32;73.32;99889.46;1705321;82;20134;-80
2021/07/28 04:21:48;;;;;;;;;;;;;;;22.39;73.28;99888.80;1707419;82;20146;-77
2021/07/28 04:24:14;;;;;;;;;;;;;;;22.29;72.97;99889.38;1705952;82;21841;-76
2021/07/28 04:26:39;;;;;;;;;;;;;;;22.39;73.34;99889.61;1699482;82;20162;-77
2021/07/28 04:29:05;;;;;;;;;;;;;;;22.43;73.29;99888.59;1712660;82;20553;-79
2021/07/28 04:31:30;;;;;;;;;;;;;;;;;;1709807;82;20128;-78
2021/07/28 04:33:56;;;;;;;;;;;;;;;22.61;72.78;99888.92;1699503;83;20200;-79
2021/07/28 04:36:21;;;;;;;;;;;;;;;22.73;72.58;99889.67;1699543;82;20147;-77
2021/07/28 04:38:47;;;;;;;;;;;;;;;22.82;72.63;99888.72;1715004;83;20496;-79
2021/07/28 04:41:12;;;;;;;;;;;;;;;22.90;72.96;99885.65;1704977;82;20157;-78
2021/07/28 04:43:38;;;;;;;;;;;;;;;22.94;72.81;99888.13;1712925;82;20146;-78
2021/07/28 04:46:04;;;;;;;;;;;;;;;22.99;71.81;99891.42;1712029;82;20168;-83
2021/07/28 04:48:29;;;;;;;;;;;;;;;23.10;72.90;99895.13;1706551;82;20775;-77
2021/07/28 04:50:56;;;;;;;;;;;;;;;23.17;72.47;99890.95;1716547;82;20193;-78
2021/07/28 04:53:22;;;;;;;;;;;;;;;23.24;72.38;99887.02;1711066;82;20175;-79
2021/07/28 04:55:52;;;;;;;;;;;;;;;23.24;70.87;99888.38;1707742;82;20699;-77
2021/07/28 04:58:18;;;;;;;;;;;;;;;23.20;71.48;99885.88;1672794;82;20175;-77
2021/07/28 05:00:44;;;;;;;;;;;;;;;23.28;71.38;99882.75;1712301;82;21977;-76
2021/07/28 05:03:11;;;;;;;;;;;;;;;23.40;71.35;99873.74;1705531;82;21090;-76
2021/07/28 05:05:36;;;;;;;;;;;;;;;23.49;71.19;99872.25;1705054;82;20242;-79
2021/07/28 05:08:03;;;;;;;;;;;;;;;23.62;71.04;99875.95;1702160;82;20218;-78
2021/07/28 05:10:29;;;;;;;;;;;;;;;23.75;70.51;99872.61;1710459;82;20166;-78
2021/07/28 05:12:54;;;;;;;;;;;;;;;23.81;70.15;99871.61;1705952;83;21154;-78
2021/07/28 05:15:20;;;;;;;;;;;;;;;23.91;69.98;99871.78;1694498;82;20994;-79
2021/07/28 05:17:45;;;;;;;;;;;;;;;23.96;69.51;99869.13;1708164;82;20134;-79
2021/07/28 05:20:12;;;;;;;;;;;;;;;24.05;69.17;99867.33;1709618;82;20186;-79
2021/07/28 05:22:37;;;;;;;;;;;;;;;24.13;68.82;99869.56;1712479;82;20176;-83
2021/07/28 05:25:03;;;;;;;;;;;;;;;24.21;69.04;99857.00;1706231;82;21201;-78
2021/07/28 05:27:29;;;;;;;;;;;;;;;24.30;69.10;99858.17;1709303;82;20159;-81
2021/07/28 05:29:55;;;;;;;;;;;;;;;24.36;69.54;99861.20;1704521;82;20145;-78
2021/07/28 05:32:24;;;;;;;;;;;;;;;24.48;69.55;99861.57;1708985;82;20194;-77
2021/07/28 05:34:48;;;;;;;;;;;;;;;24.54;68.32;99864.05;1707738;82;20172;-77
2021/07/28 05:37:13;;;;;;;;;;;;;;;24.65;68.45;99864.19;1708825;82;21068;-78
2021/07/28 05:39:39;;;;;;;;;;;;;;;24.72;69.02;99857.51;1715375;82;20174;-78
2021/07/28 05:42:04;;;;;;;;;;;;;;;24.84;69.31;99860.56;1714345;82;20144;-78
2021/07/28 05:44:32;;;;;;;;;;;;;;;24.96;69.01;99857.69;1713051;82;20141;-77
2021/07/28 05:46:57;;;;;;;;;;;;;;;25.06;68.34;99862.63;1711487;82;20416;-78
2021/07/28 05:49:23;;;;;;;;;;;;;;;25.19;67.72;99862.71;1717123;82;21087;-78
2021/07/28 05:51:48;;;;;;;;;;;;;;;25.23;68.05;99864.34;1715754;82;20140;-78
2021/07/28 05:54:14;;;;;;;;;;;;;;;25.31;68.51;99855.80;1706427;82;20138;-78
2021/07/28 05:56:39;;;;;;;;;;;;;;;25.40;68.94;99860.99;1713906;82;20140;-77
2021/07/28 05:59:05;;;;;;;;;;;;;;;25.52;68.90;99864.02;1713661;82;20189;-77
2021/07/28 06:01:31;;;;;;;;;;;;;;;25.58;68.35;99865.13;1706018;82;21132;-78
2021/07/28 06:03:56;;;;;;;;;;;;;;;25.61;68.16;99870.00;1700906;82;20139;-78
2021/07/28 06:06:25;;;;;;;;;;;;;;;25.68;68.18;99871.11;1704746;83;20187;-79
2021/07/28 06:08:49;;;;;;;;;;;;;;;25.76;68.23;99867.92;1714478;82;20241;-78
2021/07/28 06:11:15;;;;;;;;;;;;;;;25.81;68.19;99868.48;1711228;82;20166;-76
2021/07/28 06:13:40;;;;;;;;;;;;;;;25.90;67.94;99874.18;1706866;82;21879;-78
2021/07/28 06:16:06;;;;;;;;;;;;;;;26.04;67.03;99871.30;1702513;82;20159;-75
2021/07/28 06:18:33;;;;;;;;;;;;;;;26.08;65.92;99866.16;1707900;82;20458;-80
2021/07/28 06:20:59;;;;;;;;;;;;;;;26.16;65.40;99866.98;1709315;82;20484;-81
2021/07/28 06:23:24;;;;;;;;;;;;;;;26.20;64.79;99864.03;1710314;82;20733;-78
2021/07/28 06:25:50;;;;;;;;;;;;;;;26.27;64.58;99862.41;1697702;82;21079;-79
2021/07/28 06:28:15;;;;;;;;;;;;;;;26.37;63.57;99869.22;1692255;83;20153;-78
2021/07/28 06:30:41;;;;;;;;;;;;;;;26.45;62.37;99869.23;1707646;82;20220;-78
2021/07/28 06:33:06;;;;;;;;;;;;;;;26.54;61.51;99870.84;1713737;82;20138;-78
2021/07/28 06:35:32;;;;;;;;;;;;;;;26.65;61.17;99869.80;1707546;82;20461;-78
2021/07/28 06:37:57;;;;;;;;;;;;;;;26.72;60.80;99874.41;1713775;82;21074;-80
2021/07/28 06:40:23;;;;;;;;;;;;;;;26.77;60.28;99869.54;1707869;82;20158;-79
2021/07/28 06:42:48;;;;;;;;;;;;;;;26.85;61.04;99869.81;1711154;82;20162;-76
2021/07/28 06:45:14;;;;;;;;;;;;;;;26.96;61.82;99872.53;1710016;82;20857;-78
2021/07/28 06:47:40;;;;;;;;;;;;;;;27.06;61.77;99876.58;1704612;82;20151;-79
2021/07/28 06:50:06;;;;;;;;;;;;;;;27.10;60.79;99881.73;1702096;82;21066;-79
2021/07/28 06:52:31;;;;;;;;;;;;;;;27.21;60.28;99877.91;1711050;82;20219;-75
2021/07/28 06:54:57;;;;;;;;;;;;;;;27.36;59.82;99881.70;1703327;82;20416;-78
2021/07/28 06:57:22;;;;;;;;;;;;;;;27.47;58.84;99875.19;1705301;82;20110;-79
2021/07/28 06:59:48;;;;;;;;;;;;;;;27.52;57.82;99870.30;1701198;82;20125;-77
2021/07/28 07:02:13;;;;;;;;;;;;;;;27.67;58.05;99862.63;1703442;83;21112;-79
2021/07/28 07:04:39;;;;;;;;;;;;;;;27.79;57.79;99863.13;1703342;82;20146;-78
2021/07/28 07:07:04;;;;;;;;;;;;;;;27.89;57.25;99865.80;1703497;82;20447;-78
2021/07/28 07:09:30;;;;;;;;;;;;;;;27.99;56.68;99864.96;1705085;82;21395;-79
2021/07/28 07:11:55;;;;;;;;;;;;;;;28.05;56.69;99860.33;1708643;82;20174;-78
2021/07/28 07:14:21;;;;;;;;;;;;;;;28.13;55.98;99862.45;1700476;82;21079;-80
2021/07/28 07:16:47;;;;;;;;;;;;;;;28.26;56.37;99858.28;1705048;82;20999;-76
2021/07/28 07:19:12;;;;;;;;;;;;;;;28.40;55.87;99862.55;1709473;83;20142;-82
2021/07/28 07:21:38;;;;;;;;;;;;;;;28.55;55.54;99857.00;1711702;82;20603;-77
2021/07/28 07:24:04;;;;;;;;;;;;;;;28.67;55.40;99856.68;1707921;82;20236;-79
2021/07/28 07:26:30;;;;;;;;;;;;;;;28.68;55.07;99856.13;1708261;82;21031;-75
2021/07/28 07:28:55;;;;;;;;;;;;;;;28.73;55.04;99848.75;1715284;82;20162;-78
2021/07/28 07:31:21;;;;;;;;;;;;;;;28.85;55.59;99853.80;1705266;82;20171;-79
2021/07/28 07:33:46;;;;;;;;;;;;;;;29.01;56.09;99849.05;1713290;82;20844;-77
2021/07/28 07:36:17;;;;;;;;;;;;;;;29.08;54.75;99842.70;1708650;82;20126;-79
2021/07/28 07:38:40;;;;;;;;;;;;;;;29.21;55.21;99839.91;1704461;82;20148;-79
2021/07/28 07:41:06;;;;;;;;;;;;;;;29.30;54.69;99838.70;1710694;83;20143;-79
2021/07/28 07:43:31;;;;;;;;;;;;;;;29.36;53.12;99846.52;1709962;82;20295;-83
2021/07/28 07:45:57;;;;;;;;;;;;;;;29.43;52.85;99842.64;1715612;82;20240;-82
2021/07/28 07:48:23;;;;;;;;;;;;;;;29.52;52.71;99838.17;1710586;82;20726;-77
2021/07/28 07:50:49;;;;;;;;;;;;;;;29.54;52.26;99828.63;1708368;82;20992;-78
2021/07/28 07:53:14;;;;;;;;;;;;;;;29.62;52.20;99827.18;1712954;82;20200;-77
2021/07/28 07:55:40;;;;;;;;;;;;;;;29.69;52.96;99831.73;1709064;82;20124;-77
2021/07/28 07:58:05;;;;;;;;;;;;;;;29.69;52.73;99829.00;1714254;82;20140;-82
2021/07/28 08:00:31;;;;;;;;;;;;;;;29.72;52.40;99829.78;1706623;82;20130;-79
2021/07/28 08:02:57;;;;;;;;;;;;;;;29.75;52.73;99828.93;1702552;82;21868;-77
2021/07/28 08:05:22;;;;;;;;;;;;;;;29.82;52.40;99823.98;1700683;82;20146;-76
2021/07/28 08:07:48;;;;;;;;;;;;;;;29.81;52.13;99825.07;1696537;82;20229;-78
2021/07/28 08:10:13;;;;;;;;;;;;;;;29.85;52.23;99823.39;1699095;82;20166;-77
2021/07/28 08:12:39;;;;;;;;;;;;;;;29.92;52.44;99825.18;1709463;82;20720;-77
2021/07/28 08:15:05;;;;;;;;;;;;;;;30.02;52.07;99826.41;1702632;82;21074;-81
2021/07/28 08:17:30;;;;;;;;;;;;;;;30.12;52.11;99827.37;1702422;82;20171;-79
2021/07/28 08:20:04;;;;;;;;;;;;;;;30.16;51.59;99825.66;1706517;83;20139;-77
2021/07/28 08:22:27;;;;;;;;;;;;;;;30.15;51.50;99818.61;1702236;83;20231;-77
2021/07/28 08:24:53;;;;;;;;;;;;;;;30.25;51.43;99825.24;1707584;82;20142;-79
2021/07/28 08:27:18;;;;;;;;;;;;;;;30.27;51.41;99818.97;1705836;82;21076;-77
2021/07/28 08:29:44;;;;;;;;;;;;;;;30.31;50.54;99819.97;1705651;82;20154;-79
2021/07/28 08:32:09;;;;;;;;;;;;;;;30.37;49.94;99816.06;1703356;82;20151;-78
2021/07/28 08:34:35;;;;;;;;;;;;;;;30.43;49.92;99820.36;1711808;82;20134;-80
2021/07/28 08:37:01;;;;;;;;;;;;;;;30.56;50.03;99817.98;1710857;82;20205;-79
2021/07/28 08:39:26;;;;;;;;;;;;;;;30.67;49.60;99814.00;1705958;82;21106;-76
2021/07/28 08:41:53;;;;;;;;;;;;;;;30.78;49.78;99812.70;1701651;82;21457;-78
2021/07/28 08:44:19;;;;;;;;;;;;;;;30.88;50.17;99817.16;1713962;82;20465;-78
2021/07/28 08:46:45;;;;;;;;;;;;;;;30.93;49.61;99815.69;1701859;82;20181;-79
2021/07/28 08:49:13;;;;;;;;;;;;;;;30.98;49.12;99817.55;1712786;82;20473;-79
2021/07/28 08:51:40;;;;;;;;;;;;;;;30.92;48.72;99809.17;1712399;82;21224;-77
2021/07/28 08:54:05;;;;;;;;;;;;;;;31.00;46.95;99819.44;1716461;82;20173;-78
2021/07/28 08:56:31;;;;;;;;;;;;;;;30.93;46.12;99817.62;1709059;82;20208;-79
2021/07/28 08:58:56;;;;;;;;;;;;;;;30.88;46.31;99810.90;1705338;83;20474;-80
2021/07/28 09:01:23;;;;;;;;;;;;;;;30.86;46.30;99813.09;1721828;82;20440;-79
2021/07/28 09:03:49;;;;;;;;;;;;;;;30.86;46.90;99808.47;1716842;82;21104;-78
2021/07/28 09:06:29;;;;;;;;;;;;;;;30.82;47.76;99814.27;1707767;82;20224;-76
2021/07/28 09:08:59;;;;;;;;;;;;;;;30.75;46.96;99809.21;1711813;82;20160;-77
2021/07/28 09:11:24;;;;;;;;;;;;;;;30.71;46.38;99806.02;1713951;82;20161;-80
2021/07/28 09:13:56;;;;;;;;;;;;;;;30.72;47.19;99808.45;1709690;82;20146;-79
2021/07/28 09:16:21;;;;;;;;;;;;;;;30.75;47.95;99809.77;1710449;82;21872;-78
2021/07/28 09:18:48;;;;;;;;;;;;;;;30.68;48.21;99804.69;1711513;82;20141;-79
2021/07/28 09:21:31;;;;;;;;;;;;;;;30.71;48.65;99801.36;1714506;82;20171;-77
2021/07/28 09:24:12;;;;;;;;;;;;;;;30.78;48.45;99807.25;1706133;82;20120;-78
2021/07/28 09:26:42;;;;;;;;;;;;;;;30.84;48.44;99803.89;1700598;82;20186;-76
2021/07/28 09:29:08;;;;;;;;;;;;;;;30.86;48.02;99803.55;1707852;82;20110;-78
2021/07/28 09:31:48;;;;;;;;;;;;;;;30.87;47.94;99797.80;1709491;82;20504;-77
2021/07/28 09:34:24;;;;;;;;;;;;;;;30.91;48.01;99798.83;1701666;82;20183;-78
2021/07/28 09:36:51;;;;;;;;;;;;;;;30.99;48.27;99798.72;1717863;82;20198;-77
2021/07/28 09:39:31;;;;;;;;;;;;;;;31.02;48.17;99802.20;1705401;82;20174;-75
2021/07/28 09:42:08;;;;;;;;;;;;;;;31.08;48.28;99798.27;1711337;82;20931;-78
2021/07/28 09:44:34;;;;;;;;;;;;;;;31.10;47.51;99797.41;1714348;82;20214;-81
2021/07/28 09:47:16;;;;;;;;;;;;;;;31.12;46.97;99789.75;1719127;82;20200;-82
2021/07/28 09:49:44;;;;;;;;;;;;;;;31.13;46.51;99779.07;1709467;82;20145;-77
2021/07/28 09:52:19;;;;;;;;;;;;;;;31.21;46.45;99783.58;1708077;82;20424;-79
2021/07/28 09:54:46;;;;;;;;;;;;;;;31.24;46.57;99781.61;1712132;82;21753;-78
2021/07/28 09:57:24;;;;;;;;;;;;;;;;;;;;;
2021/07/28 10:00:05;;;;;;;;;;;;;;;31.36;46.40;99783.27;1791033;79;20220;-76
2021/07/28 10:02:32;;;;;;;;;;;;;;;31.34;46.22;99784.14;1753952;81;20628;-75
2021/07/28 10:04:58;;;;;;;;;;;;;;;31.34;46.30;99782.77;1755271;81;21333;-79
2021/07/28 10:07:25;;;;;;;;;;;;;;;31.37;46.57;99774.52;1730811;81;20142;-78
2021/07/28 10:10:07;;;;;;;;;;;;;;;31.40;45.73;99778.83;1754576;81;20099;-78
2021/07/28 10:12:37;;;;;;;;;;;;;;;31.39;46.38;99786.75;1754957;81;20134;-77
2021/07/28 10:15:00;;;;;;;;;;;;;;;31.34;45.77;99777.31;1752422;81;20433;-77
2021/07/28 10:17:26;;;;;;;;;;;;;;;31.31;45.59;99783.38;1753765;80;21055;-79
2021/07/28 10:19:52;;;;;;;;;;;;;;;31.32;45.85;99778.16;1733354;81;20787;-79
2021/07/28 10:22:17;;;;;;;;;;;;;;;31.33;46.08;99778.42;1756821;81;20268;-79
2021/07/28 10:24:47;;;;;;;;;;;;;;;31.37;46.36;99775.34;1755515;81;20119;-80
2021/07/28 10:27:15;;;;;;;;;;;;;;;31.43;46.57;99767.30;1754094;80;20505;-78
2021/07/28 10:29:43;;;;;;;;;;;;;;;31.53;46.87;99760.02;1756273;80;21169;-77
2021/07/28 10:32:09;;;;;;;;;;;;;;;31.60;47.33;99765.88;1760558;80;20127;-78
2021/07/28 10:34:35;;;;;;;;;;;;;;;31.67;47.13;99766.27;1757202;80;20137;-77
2021/07/28 10:37:05;;;;;;;;;;;;;;;31.72;47.46;99757.96;1755553;81;20178;-77
2021/07/28 10:39:47;;;;;;;;;;;;;;;31.77;47.09;99764.66;1755661;81;20436;-77
2021/07/28 10:42:17;;;;;;;;;;;;;;;31.72;44.78;99762.05;1754307;80;21214;-78
2021/07/28 10:45:01;;;;;;;;;;;;;;;31.71;44.30;99761.80;1754739;81;20615;-78
2021/07/28 10:47:50;;;;;;;;;;;;;;;31.70;42.56;99757.47;1754072;81;20126;-77
2021/07/28 10:50:25;;;;;;;;;;;;;;;31.44;42.58;99763.44;1755262;80;20150;-79
2021/07/28 10:52:54;;;;;;;;;;;;;;;31.47;42.38;99760.10;1755205;81;20450;-78
2021/07/28 10:55:21;;;;;;;;;;;;;;;31.55;42.42;99757.81;1752756;80;21157;-79
2021/07/28 10:58:10;;;;;;;;;;;;;;;31.58;43.42;99756.63;1752459;80;20147;-78
2021/07/28 11:00:39;;;;;;;;;;;;;;;31.63;42.57;99754.34;1741703;81;20236;-78
2021/07/28 11:03:11;;;;;;;;;;;;;;;31.67;42.22;99751.27;1741767;81;20170;-79
2021/07/28 11:05:48;;;;;;;;;;;;;;;31.76;41.58;99750.78;1737353;81;20170;-79
2021/07/28 11:08:14;;;;;;;;;;;;;;;31.85;42.71;99746.20;1735412;81;20624;-77
2021/07/28 11:10:47;;;;;;;;;;;;;;;31.96;43.57;99741.30;1738995;81;20183;-76
2021/07/28 11:13:18;;;;;;;;;;;;;;;32.08;43.82;99742.67;1736716;80;20137;-77
2021/07/28 11:15:58;;;;;;;;;;;;;;;32.12;41.92;99744.50;1740651;81;20205;-76
2021/07/28 11:18:43;;;;;;;;;;;;;;;32.07;41.74;99741.87;1724603;82;20211;-77
2021/07/28 11:21:14;;;;;;;;;;;;;;;31.98;41.72;99738.27;1741767;81;22133;-77
2021/07/28 11:23:45;;;;;;;;;;;;;;;32.09;42.05;99742.39;1741123;81;20175;-78
2021/07/28 11:26:15;;;;;;;;;;;;;;;32.17;41.93;99740.27;1745139;80;20151;-76
2021/07/28 11:28:40;;;;;;;;;;;;;;;32.25;42.25;99736.55;1724611;81;20260;-77
2021/07/28 11:31:07;;;;;;;;;;;;;;;32.35;42.71;99733.57;1741510;81;20349;-77
2021/07/28 11:33:35;;;;;;;;;;;;;;;32.46;42.67;99736.81;1740758;80;20947;-78
2021/07/28 11:36:01;;;;;;;;;;;;;;;32.49;42.82;99731.55;1741951;80;20140;-76
2021/07/28 11:38:30;;;;;;;;;;;;;;;32.55;42.17;99733.03;1720979;80;20274;-79
2021/07/28 11:40:58;;;;;;;;;;;;;;;32.61;42.14;99732.88;1738900;80;20169;-80
2021/07/28 11:43:38;;;;;;;;;;;;;;;32.65;40.73;99731.17;1740140;81;20588;-78
2021/07/28 11:46:15;;;;;;;;;;;;;;;32.66;39.92;99738.23;1738871;81;21080;-79
2021/07/28 11:48:44;;;;;;;;;;;;;;;32.54;39.80;99731.41;1740099;81;20153;-78
2021/07/28 11:51:22;;;;;;;;;;;;;;;32.45;39.13;99733.28;1727785;82;20433;-79
2021/07/28 11:53:48;;;;;;;;;;;;;;;32.52;37.73;99728.19;1741329;82;20548;-77
2021/07/28 11:56:15;;;;;;;;;;;;;;;32.48;38.43;99724.45;1743341;81;20164;-77
2021/07/28 11:58:45;;;;;;;;;;;;;;;32.60;39.44;99723.06;1745619;81;21877;-77
2021/07/28 12:01:22;;;;;;;;;;;;;;;32.73;40.44;99722.99;1747214;81;20700;-77
2021/07/28 12:04:05;;;;;;;;;;;;;;;32.71;40.40;99714.88;1742826;81;20455;-80
2021/07/28 12:06:40;;;;;;;;;;;;;;;32.82;39.58;99715.41;1748622;82;20167;-87
2021/07/28 12:09:16;;;;;;;;;;;;;;;32.82;39.38;99710.73;1749881;80;20180;-80
2021/07/28 12:12:01;;;;;;;;;;;;;;;32.83;39.44;99705.52;1747113;81;21967;-78
2021/07/28 12:14:46;;;;;;;;;;;;;;;32.97;40.22;99707.31;1742942;81;20160;-78
2021/07/28 12:17:18;;;;;;;;;;;;;;;33.03;38.67;99700.57;1746091;81;20284;-78
2021/07/28 12:20:04;;;;;;;;;;;;;;;33.23;39.15;99697.83;1747930;81;20186;-78
2021/07/28 12:22:34;;;;;;;;;;;;;;;33.38;39.74;99700.68;1749454;80;20178;-77
2021/07/28 12:25:23;;;;;;;;;;;;;;;33.30;38.60;99695.98;1748358;80;21047;-78
2021/07/28 12:28:00;;;;;;;;;;;;;;;33.38;39.19;99695.20;1748349;81;20159;-81
2021/07/28 12:30:30;;;;;;;;;;;;;;;33.40;38.59;99695.11;1745029;81;20477;-82
2021/07/28 12:33:12;;;;;;;;;;;;;;;33.57;38.73;99691.58;1749594;80;20198;-77
2021/07/28 12:35:41;;;;;;;;;;;;;;;33.67;38.18;99691.84;1751719;80;20208;-79
2021/07/28 12:38:09;;;;;;;;;;;;;;;33.76;37.58;99690.48;1746929;80;22812;-78
2021/07/28 12:40:35;;;;;;;;;;;;;;;33.83;38.06;99689.44;1746061;81;20270;-75
2021/07/28 12:43:05;;;;;;;;;;;;;;;33.98;38.37;99683.45;1744843;81;20235;-80
2021/07/28 12:45:31;;;;;;;;;;;;;;;34.12;38.04;99692.03;1745243;81;20144;-77
2021/07/28 12:47:58;;;;;;;;;;;;;;;34.14;37.75;99677.45;1747952;81;20332;-77
2021/07/28 12:50:24;;;;;;;;;;;;;;;34.23;37.64;99679.61;1750449;80;21236;-77
2021/07/28 12:52:49;;;;;;;;;;;;;;;34.37;37.97;99675.88;1749797;81;20169;-77
2021/07/28 12:55:16;;;;;;;;;;;;;;;34.48;38.39;99666.17;1750034;81;20200;-80